sensor_id;sensor_type;location;lat;lon;timestamp;pressure;altitude;pressure_sealevel;temperature;humidity
26915;BME280;14480;52.608;13.416;2022-07-11T00:04:57;111587.56;;;-144.42;100.00
26915;BME280;14480;52.608;13.416;2022-07-11T00:10:02;111587.56;;;-144.42;100.00
26915;BME280;14480;52.608;13.416;2022-07-11T00:15:08;111587.56;;;-144.42;100.00
26915;BME280;14480;52.608;13.416;2022-07-11T00:20:11;111587.56;;;-144.42;100.00
26915;BME280;14480;52.608;13.416;2022-07-11T00:25:16;111587.56;;;-144.42;100.00
26915;BME280;14480;52.608;13.416;2022-07-11T00:30:22;111587.56;;;-144.42;100.00
26915;BME280;14480;52.608;13.416;2022-07-11T00:35:26;111587.56;;;-144.42;100.00
26915;BME280;14480;52.608;13.416;2022-07-11T06:31:02;111587.56;;;-144.42;44.44
26915;BME280;14480;52.608;13.416;2022-07-11T06:36:06;111587.56;;;-144.42;42.82
26915;BME280;14480;52.608;13.416;2022-07-11T06:41:14;111587.56;;;-144.42;42.48
26915;BME280;14480;52.608;13.416;2022-07-11T06:46:18;111587.56;;;-144.42;42.25
26915;BME280;14480;52.608;13.416;2022-07-11T06:51:22;111587.56;;;-144.42;41.42
26915;BME280;14480;52.608;13.416;2022-07-11T06:56:25;111587.56;;;-144.42;42.69
26915;BME280;14480;52.608;13.416;2022-07-11T07:01:30;111587.56;;;-144.42;45.67
26915;BME280;14480;52.608;13.416;2022-07-11T07:06:34;111587.56;;;-144.42;44.71
26915;BME280;14480;52.608;13.416;2022-07-11T07:11:37;111587.56;;;-144.42;43.97
26915;BME280;14480;52.608;13.416;2022-07-11T07:16:43;111587.56;;;-144.42;43.64
26915;BME280;14480;52.608;13.416;2022-07-11T07:21:46;111587.56;;;-144.42;42.68
26915;BME280;14480;52.608;13.416;2022-07-11T07:26:50;111587.56;;;-144.42;47.87
26915;BME280;14480;52.608;13.416;2022-07-11T07:32:00;111587.56;;;-144.42;49.03
26915;BME280;14480;52.608;13.416;2022-07-11T07:37:04;111587.56;;;-144.42;48.02
26915;BME280;14480;52.608;13.416;2022-07-11T07:42:08;111587.56;;;-144.42;46.61
26915;BME280;14480;52.608;13.416;2022-07-11T07:47:13;111587.56;;;-144.42;47.16
26915;BME280;14480;52.608;13.416;2022-07-11T07:52:16;111587.56;;;-144.42;47.44
26915;BME280;14480;52.608;13.416;2022-07-11T07:57:20;111587.56;;;-144.42;50.82
26915;BME280;14480;52.608;13.416;2022-07-11T08:02:25;111587.56;;;-144.42;52.88
26915;BME280;14480;52.608;13.416;2022-07-11T08:07:28;111587.56;;;-144.42;51.93
26915;BME280;14480;52.608;13.416;2022-07-11T08:12:32;111587.56;;;-144.42;50.51
26915;BME280;14480;52.608;13.416;2022-07-11T08:17:37;111587.56;;;-144.42;54.80
26915;BME280;14480;52.608;13.416;2022-07-11T08:22:42;111587.56;;;-144.42;58.13
26915;BME280;14480;52.608;13.416;2022-07-11T08:27:49;111587.56;;;-144.42;63.32
26915;BME280;14480;52.608;13.416;2022-07-11T08:32:54;111587.56;;;-144.42;66.91
26915;BME280;14480;52.608;13.416;2022-07-11T08:37:58;111587.56;;;-144.42;70.38
26915;BME280;14480;52.608;13.416;2022-07-11T08:43:04;111587.56;;;-144.42;64.94
26915;BME280;14480;52.608;13.416;2022-07-11T08:48:17;111587.56;;;-144.42;65.39
26915;BME280;14480;52.608;13.416;2022-07-11T08:53:22;111587.56;;;-144.42;63.64
26915;BME280;14480;52.608;13.416;2022-07-11T08:58:26;111587.56;;;-144.42;65.96
26915;BME280;14480;52.608;13.416;2022-07-11T09:03:31;111587.56;;;-144.42;66.54
26915;BME280;14480;52.608;13.416;2022-07-11T09:08:35;111587.56;;;-144.42;59.25
26915;BME280;14480;52.608;13.416;2022-07-11T09:13:38;111587.56;;;-144.42;56.69
26915;BME280;14480;52.608;13.416;2022-07-11T09:18:44;111587.56;;;-144.42;55.48
26915;BME280;14480;52.608;13.416;2022-07-11T09:23:47;111587.56;;;-144.42;57.99
26915;BME280;14480;52.608;13.416;2022-07-11T09:29:09;111587.56;;;-144.42;55.49
26915;BME280;14480;52.608;13.416;2022-07-11T09:34:15;111587.56;;;-144.42;53.04
26915;BME280;14480;52.608;13.416;2022-07-11T09:39:20;111587.56;;;-144.42;52.35
26915;BME280;14480;52.608;13.416;2022-07-11T09:44:26;111587.56;;;-144.42;53.02
26915;BME280;14480;52.608;13.416;2022-07-11T09:49:33;111587.56;;;-144.42;54.12
26915;BME280;14480;52.608;13.416;2022-07-11T09:54:51;111587.56;;;-144.42;51.29
26915;BME280;14480;52.608;13.416;2022-07-11T09:59:55;111587.56;;;-144.42;52.21
26915;BME280;14480;52.608;13.416;2022-07-11T10:05:03;111587.56;;;-144.42;52.57
26915;BME280;14480;52.608;13.416;2022-07-11T10:10:07;111587.56;;;-144.42;51.37
26915;BME280;14480;52.608;13.416;2022-07-11T10:15:14;111587.56;;;-144.42;51.36
26915;BME280;14480;52.608;13.416;2022-07-11T10:20:19;111587.56;;;-144.42;49.72
26915;BME280;14480;52.608;13.416;2022-07-11T10:25:28;111587.56;;;-144.42;49.52
26915;BME280;14480;52.608;13.416;2022-07-11T10:30:45;111587.56;;;-144.42;48.16
26915;BME280;14480;52.608;13.416;2022-07-11T10:35:51;111587.56;;;-144.42;47.70
26915;BME280;14480;52.608;13.416;2022-07-11T10:40:55;111587.56;;;-144.42;47.30
26915;BME280;14480;52.608;13.416;2022-07-11T10:46:00;111587.56;;;-144.42;46.07
26915;BME280;14480;52.608;13.416;2022-07-11T10:51:10;111587.56;;;-144.42;48.60
26915;BME280;14480;52.608;13.416;2022-07-11T10:56:27;111587.56;;;-144.42;49.11
26915;BME280;14480;52.608;13.416;2022-07-11T11:02:02;111587.56;;;-144.42;47.95
26915;BME280;14480;52.608;13.416;2022-07-11T11:07:10;111587.56;;;-144.42;45.38
26915;BME280;14480;52.608;13.416;2022-07-11T11:17:52;111587.56;;;-144.42;45.37
26915;BME280;14480;52.608;13.416;2022-07-11T11:23:08;111587.56;;;-144.42;46.36
26915;BME280;14480;52.608;13.416;2022-07-11T11:28:12;111587.56;;;-144.42;43.18
26915;BME280;14480;52.608;13.416;2022-07-11T11:33:24;111587.56;;;-144.42;42.43
26915;BME280;14480;52.608;13.416;2022-07-11T11:38:29;111587.56;;;-144.42;43.27
26915;BME280;14480;52.608;13.416;2022-07-11T11:43:35;111587.56;;;-144.42;40.80
26915;BME280;14480;52.608;13.416;2022-07-11T11:48:39;111587.56;;;-144.42;41.45
26915;BME280;14480;52.608;13.416;2022-07-11T11:53:52;111587.56;;;-144.42;42.04
26915;BME280;14480;52.608;13.416;2022-07-11T11:58:56;111587.56;;;-144.42;39.49
26915;BME280;14480;52.608;13.416;2022-07-11T12:04:07;111587.56;;;-144.42;40.30
26915;BME280;14480;52.608;13.416;2022-07-11T12:09:16;111587.56;;;-144.42;39.73
26915;BME280;14480;52.608;13.416;2022-07-11T12:14:19;111587.56;;;-144.42;39.93
26915;BME280;14480;52.608;13.416;2022-07-11T12:19:23;111587.56;;;-144.42;39.70
26915;BME280;14480;52.608;13.416;2022-07-11T12:24:28;111587.56;;;-144.42;39.51
26915;BME280;14480;52.608;13.416;2022-07-11T12:29:39;111587.56;;;-144.42;39.07
26915;BME280;14480;52.608;13.416;2022-07-11T12:34:43;111587.56;;;-144.42;42.03
26915;BME280;14480;52.608;13.416;2022-07-11T12:39:49;111587.56;;;-144.42;42.07
26915;BME280;14480;52.608;13.416;2022-07-11T12:44:54;111587.56;;;-144.42;40.81
26915;BME280;14480;52.608;13.416;2022-07-11T12:50:07;111587.56;;;-144.42;40.80
26915;BME280;14480;52.608;13.416;2022-07-11T12:55:21;111587.56;;;-144.42;41.60
26915;BME280;14480;52.608;13.416;2022-07-11T13:00:27;111587.56;;;-144.42;39.72
26915;BME280;14480;52.608;13.416;2022-07-11T13:05:45;111587.56;;;-144.42;39.78
26915;BME280;14480;52.608;13.416;2022-07-11T13:10:50;111587.56;;;-144.42;40.78
26915;BME280;14480;52.608;13.416;2022-07-11T13:16:07;111587.56;;;-144.42;41.98
26915;BME280;14480;52.608;13.416;2022-07-11T13:21:11;111587.56;;;-144.42;41.88
26915;BME280;14480;52.608;13.416;2022-07-11T13:26:16;111587.56;;;-144.42;40.51
26915;BME280;14480;52.608;13.416;2022-07-11T13:31:20;111587.56;;;-144.42;40.10
26915;BME280;14480;52.608;13.416;2022-07-11T13:36:27;111587.56;;;-144.42;41.57
26915;BME280;14480;52.608;13.416;2022-07-11T13:41:34;111587.56;;;-144.42;41.90
26915;BME280;14480;52.608;13.416;2022-07-11T13:46:38;111587.56;;;-144.42;41.29
26915;BME280;14480;52.608;13.416;2022-07-11T13:51:43;111587.56;;;-144.42;41.90
26915;BME280;14480;52.608;13.416;2022-07-11T13:56:51;111587.56;;;-144.42;42.86
26915;BME280;14480;52.608;13.416;2022-07-11T14:01:55;111587.56;;;-144.42;44.54
26915;BME280;14480;52.608;13.416;2022-07-11T14:06:58;111587.56;;;-144.42;43.58
26915;BME280;14480;52.608;13.416;2022-07-11T14:12:04;111587.56;;;-144.42;43.20
26915;BME280;14480;52.608;13.416;2022-07-11T14:17:07;111587.56;;;-144.42;43.23
26915;BME280;14480;52.608;13.416;2022-07-11T14:22:11;111587.56;;;-144.42;40.53
26915;BME280;14480;52.608;13.416;2022-07-11T14:27:16;111587.56;;;-144.42;39.79
26915;BME280;14480;52.608;13.416;2022-07-11T14:32:19;111587.56;;;-144.42;38.59
26915;BME280;14480;52.608;13.416;2022-07-11T14:37:23;111587.56;;;-144.42;39.15
26915;BME280;14480;52.608;13.416;2022-07-11T14:42:29;111587.56;;;-144.42;39.47
26915;BME280;14480;52.608;13.416;2022-07-11T14:47:43;111587.56;;;-144.42;39.11
26915;BME280;14480;52.608;13.416;2022-07-11T14:52:49;111587.56;;;-144.42;38.60
26915;BME280;14480;52.608;13.416;2022-07-11T14:57:54;111587.56;;;-144.42;39.99
26915;BME280;14480;52.608;13.416;2022-07-11T15:02:58;111587.56;;;-144.42;40.41
26915;BME280;14480;52.608;13.416;2022-07-11T15:08:19;111587.56;;;-144.42;40.17
26915;BME280;14480;52.608;13.416;2022-07-11T15:13:42;111587.56;;;-144.42;40.94
26915;BME280;14480;52.608;13.416;2022-07-11T15:18:45;111587.56;;;-144.42;41.30
26915;BME280;14480;52.608;13.416;2022-07-11T15:23:48;111587.56;;;-144.42;40.88
26915;BME280;14480;52.608;13.416;2022-07-11T15:28:53;111587.56;;;-144.42;40.85
26915;BME280;14480;52.608;13.416;2022-07-11T15:33:57;111587.56;;;-144.42;41.27
26915;BME280;14480;52.608;13.416;2022-07-11T15:39:03;111587.56;;;-144.42;41.99
26915;BME280;14480;52.608;13.416;2022-07-11T15:44:08;111587.56;;;-144.42;42.20
26915;BME280;14480;52.608;13.416;2022-07-11T15:49:11;111587.56;;;-144.42;42.94
26915;BME280;14480;52.608;13.416;2022-07-11T15:54:16;111587.56;;;-144.42;43.12
26915;BME280;14480;52.608;13.416;2022-07-11T15:59:21;111587.56;;;-144.42;42.97
26915;BME280;14480;52.608;13.416;2022-07-11T16:04:24;111587.56;;;-144.42;42.76
26915;BME280;14480;52.608;13.416;2022-07-11T16:09:30;111587.56;;;-144.42;43.12
26915;BME280;14480;52.608;13.416;2022-07-11T16:14:36;111587.56;;;-144.42;43.91
26915;BME280;14480;52.608;13.416;2022-07-11T16:19:39;111587.56;;;-144.42;44.36
26915;BME280;14480;52.608;13.416;2022-07-11T16:24:43;111587.56;;;-144.42;44.17
26915;BME280;14480;52.608;13.416;2022-07-11T16:29:50;111587.56;;;-144.42;44.39
26915;BME280;14480;52.608;13.416;2022-07-11T16:34:54;111587.56;;;-144.42;45.63
26915;BME280;14480;52.608;13.416;2022-07-11T16:39:57;111587.56;;;-144.42;50.40
26915;BME280;14480;52.608;13.416;2022-07-11T16:45:20;111587.56;;;-144.42;42.53
26915;BME280;14480;52.608;13.416;2022-07-11T16:50:32;111587.56;;;-144.42;43.12
26915;BME280;14480;52.608;13.416;2022-07-11T16:55:42;111587.56;;;-144.42;43.64
26915;BME280;14480;52.608;13.416;2022-07-11T17:00:47;111587.56;;;-144.42;43.89
26915;BME280;14480;52.608;13.416;2022-07-11T17:05:51;111587.56;;;-144.42;44.34
26915;BME280;14480;52.608;13.416;2022-07-11T17:10:58;111587.56;;;-144.42;45.57
26915;BME280;14480;52.608;13.416;2022-07-11T17:16:05;111587.56;;;-144.42;45.95
26915;BME280;14480;52.608;13.416;2022-07-11T17:21:13;111587.56;;;-144.42;46.05
26915;BME280;14480;52.608;13.416;2022-07-11T17:26:16;111587.56;;;-144.42;47.09
26915;BME280;14480;52.608;13.416;2022-07-11T17:31:23;111587.56;;;-144.42;46.64
26915;BME280;14480;52.608;13.416;2022-07-11T17:36:27;111587.56;;;-144.42;48.12
26915;BME280;14480;52.608;13.416;2022-07-11T17:41:31;111587.56;;;-144.42;48.83
26915;BME280;14480;52.608;13.416;2022-07-11T17:46:36;111587.56;;;-144.42;49.88
26915;BME280;14480;52.608;13.416;2022-07-11T17:51:39;111587.56;;;-144.42;51.36
26915;BME280;14480;52.608;13.416;2022-07-11T17:56:43;111587.56;;;-144.42;51.90
26915;BME280;14480;52.608;13.416;2022-07-11T18:01:50;111587.56;;;-144.42;52.40
26915;BME280;14480;52.608;13.416;2022-07-11T18:06:53;111587.56;;;-144.42;52.83
26915;BME280;14480;52.608;13.416;2022-07-11T18:11:57;111587.56;;;-144.42;52.94
26915;BME280;14480;52.608;13.416;2022-07-11T18:17:02;111587.56;;;-144.42;53.26
26915;BME280;14480;52.608;13.416;2022-07-11T18:22:06;111587.56;;;-144.42;54.19
26915;BME280;14480;52.608;13.416;2022-07-11T18:27:12;111587.56;;;-144.42;54.33
26915;BME280;14480;52.608;13.416;2022-07-11T18:32:17;111587.56;;;-144.42;54.44
26915;BME280;14480;52.608;13.416;2022-07-11T18:37:22;111587.56;;;-144.42;54.69
26915;BME280;14480;52.608;13.416;2022-07-11T18:42:25;111587.56;;;-144.42;55.31
26915;BME280;14480;52.608;13.416;2022-07-11T18:47:31;111587.56;;;-144.42;55.75
26915;BME280;14480;52.608;13.416;2022-07-11T18:52:47;111587.56;;;-144.42;55.85
26915;BME280;14480;52.608;13.416;2022-07-11T18:57:51;111587.56;;;-144.42;56.80
26915;BME280;14480;52.608;13.416;2022-07-11T19:03:00;111587.56;;;-144.42;57.49
26915;BME280;14480;52.608;13.416;2022-07-11T19:08:03;111587.56;;;-144.42;58.73
26915;BME280;14480;52.608;13.416;2022-07-11T19:13:07;111587.56;;;-144.42;60.11
26915;BME280;14480;52.608;13.416;2022-07-11T19:18:12;111587.56;;;-144.42;60.92
26915;BME280;14480;52.608;13.416;2022-07-11T19:23:15;111587.56;;;-144.42;63.14
26915;BME280;14480;52.608;13.416;2022-07-11T19:28:19;111587.56;;;-144.42;64.91
26915;BME280;14480;52.608;13.416;2022-07-11T19:33:24;111587.56;;;-144.42;68.00
26915;BME280;14480;52.608;13.416;2022-07-11T19:38:29;111587.56;;;-144.42;67.39
26915;BME280;14480;52.608;13.416;2022-07-11T19:43:35;111587.56;;;-144.42;68.08
26915;BME280;14480;52.608;13.416;2022-07-11T19:48:44;111587.56;;;-144.42;69.36
26915;BME280;14480;52.608;13.416;2022-07-11T19:53:47;111587.56;;;-144.42;73.56
26915;BME280;14480;52.608;13.416;2022-07-11T19:58:52;111587.56;;;-144.42;76.81
26915;BME280;14480;52.608;13.416;2022-07-11T20:03:56;111587.56;;;-144.42;78.51
26915;BME280;14480;52.608;13.416;2022-07-11T20:09:02;111587.56;;;-144.42;81.45
26915;BME280;14480;52.608;13.416;2022-07-11T20:14:05;111587.56;;;-144.42;90.42
26915;BME280;14480;52.608;13.416;2022-07-11T20:19:10;111587.56;;;-144.42;93.77
26915;BME280;14480;52.608;13.416;2022-07-11T20:24:16;111587.56;;;-144.42;94.89
26915;BME280;14480;52.608;13.416;2022-07-11T20:29:24;111587.56;;;-144.42;100.00
26915;BME280;14480;52.608;13.416;2022-07-11T20:34:32;111587.56;;;-144.42;100.00
26915;BME280;14480;52.608;13.416;2022-07-11T20:39:38;111587.56;;;-144.42;100.00
26915;BME280;14480;52.608;13.416;2022-07-11T20:44:44;111587.56;;;-144.42;100.00
26915;BME280;14480;52.608;13.416;2022-07-11T20:49:54;111587.56;;;-144.42;100.00
26915;BME280;14480;52.608;13.416;2022-07-11T20:54:58;111587.56;;;-144.42;100.00
26915;BME280;14480;52.608;13.416;2022-07-11T21:00:02;111587.56;;;-144.42;99.53
26915;BME280;14480;52.608;13.416;2022-07-11T21:05:09;111587.56;;;-144.42;96.82
26915;BME280;14480;52.608;13.416;2022-07-11T21:10:12;111587.56;;;-144.42;96.99
26915;BME280;14480;52.608;13.416;2022-07-11T21:15:16;111587.56;;;-144.42;98.12
26915;BME280;14480;52.608;13.416;2022-07-11T21:20:21;111587.56;;;-144.42;99.27
26915;BME280;14480;52.608;13.416;2022-07-11T21:25:24;111587.56;;;-144.42;100.00
26915;BME280;14480;52.608;13.416;2022-07-11T21:30:30;111587.56;;;-144.42;100.00
26915;BME280;14480;52.608;13.416;2022-07-11T21:35:35;111587.56;;;-144.42;100.00
26915;BME280;14480;52.608;13.416;2022-07-11T21:40:39;111587.56;;;-144.42;100.00
26915;BME280;14480;52.608;13.416;2022-07-11T21:45:45;111587.56;;;-144.42;100.00
26915;BME280;14480;52.608;13.416;2022-07-11T21:50:55;111587.56;;;-144.42;100.00
26915;BME280;14480;52.608;13.416;2022-07-11T21:55:59;111587.56;;;-144.42;100.00
26915;BME280;14480;52.608;13.416;2022-07-11T22:01:02;111587.56;;;-144.42;100.00
26915;BME280;14480;52.608;13.416;2022-07-11T22:06:07;111587.56;;;-144.42;100.00
26915;BME280;14480;52.608;13.416;2022-07-11T22:11:10;111587.56;;;-144.42;100.00
26915;BME280;14480;52.608;13.416;2022-07-11T22:16:13;111587.56;;;-144.42;100.00
26915;BME280;14480;52.608;13.416;2022-07-11T22:21:18;111587.56;;;-144.42;100.00
26915;BME280;14480;52.608;13.416;2022-07-11T22:26:24;111587.56;;;-144.42;100.00
